createdAt,value
2018-09-20T00:01:52.572Z,20.34
2018-09-20T00:05:56.487Z,20.28
2018-09-20T00:10:00.165Z,20.21
2018-09-20T00:14:03.682Z,20.18
2018-09-20T00:18:07.610Z,20.17
2018-09-20T00:22:11.151Z,20.15
2018-09-20T00:26:14.782Z,20.12
2018-09-20T00:30:18.683Z,20.08
2018-09-20T00:34:22.408Z,20.02
2018-09-20T00:38:26.256Z,19.97
2018-09-20T00:42:29.873Z,19.90
2018-09-20T00:46:33.517Z,19.85
2018-09-20T00:50:37.130Z,19.81
2018-09-20T00:54:40.709Z,19.77
2018-09-20T00:58:44.316Z,19.72
2018-09-20T01:02:48.163Z,19.69
2018-09-20T01:06:51.775Z,19.67
2018-09-20T01:10:55.426Z,19.61
2018-09-20T01:15:00.116Z,19.56
2018-09-20T01:19:03.746Z,19.51
2018-09-20T01:23:07.587Z,19.46
2018-09-20T01:27:11.215Z,19.43
2018-09-20T01:31:14.937Z,19.41
2018-09-20T01:35:18.614Z,19.39
2018-09-20T01:39:22.286Z,19.34
2018-09-20T01:43:25.837Z,19.30
2018-09-20T01:47:29.471Z,19.27
2018-09-20T01:51:33.018Z,19.24
2018-09-20T01:55:37.767Z,19.25
2018-09-20T01:59:41.330Z,19.22
2018-09-20T02:03:46.107Z,19.21
2018-09-20T02:07:49.615Z,19.21
2018-09-20T02:11:53.333Z,19.17
2018-09-20T02:15:56.909Z,19.15
2018-09-20T02:20:00.579Z,19.10
2018-09-20T02:24:04.173Z,19.06
2018-09-20T02:28:07.849Z,19.04
2018-09-20T02:32:11.545Z,19.02
2018-09-20T02:36:16.226Z,18.94
2018-09-20T02:40:19.702Z,18.89
2018-09-20T02:44:25.498Z,18.86
2018-09-20T02:48:29.371Z,18.84
2018-09-20T02:52:33.008Z,18.81
2018-09-20T02:56:37.051Z,18.76
2018-09-20T03:00:40.719Z,18.75
2018-09-20T03:04:44.486Z,18.74
2018-09-20T03:08:48.505Z,18.74
2018-09-20T03:12:51.987Z,18.70
2018-09-20T03:16:57.746Z,18.68
2018-09-20T03:21:01.699Z,18.68
2018-09-20T03:25:05.386Z,18.68
2018-09-20T03:29:08.948Z,18.62
2018-09-20T03:33:12.633Z,18.59
2018-09-20T03:37:16.487Z,18.57
2018-09-20T03:41:21.369Z,18.56
2018-09-20T03:45:25.164Z,18.55
2018-09-20T03:49:29.033Z,18.54
2018-09-20T03:53:32.580Z,18.54
2018-09-20T03:57:36.613Z,18.54
2018-09-20T04:01:40.226Z,18.53
2018-09-20T04:05:44.012Z,18.52
2018-09-20T04:09:47.648Z,18.49
2018-09-20T04:13:51.447Z,18.44
2018-09-20T04:17:54.934Z,18.39
2018-09-20T04:21:58.509Z,18.38
2018-09-20T04:26:02.158Z,18.39
2018-09-20T04:30:06.092Z,18.39
2018-09-20T04:34:09.582Z,18.37
2018-09-20T04:38:13.626Z,18.34
2018-09-20T04:42:17.194Z,18.31
2018-09-20T04:46:20.841Z,18.26
2018-09-20T04:50:24.664Z,18.19
2018-09-20T04:54:28.314Z,18.16
2018-09-20T04:58:32.195Z,18.15
2018-09-20T05:02:36.090Z,18.14
2018-09-20T05:06:39.559Z,18.15
2018-09-20T05:10:43.271Z,18.14
2018-09-20T05:14:46.743Z,18.14
2018-09-20T05:18:50.529Z,18.14
2018-09-20T05:22:54.410Z,18.18
2018-09-20T05:26:57.962Z,18.22
2018-09-20T05:31:01.654Z,18.25
2018-09-20T05:35:05.312Z,18.28
2018-09-20T05:39:09.976Z,18.31
2018-09-20T05:43:13.526Z,18.32
2018-09-20T05:47:17.537Z,18.37
2018-09-20T05:51:21.227Z,18.42
2018-09-20T05:55:24.743Z,18.47
2018-09-20T05:59:28.383Z,18.52
2018-09-20T06:03:32.033Z,18.57
2018-09-20T06:07:35.697Z,18.61
2018-09-20T06:11:39.308Z,18.68
2018-09-20T06:15:43.017Z,18.73
2018-09-20T06:19:46.604Z,18.78
2018-09-20T06:23:51.254Z,18.87
2018-09-20T06:27:54.910Z,18.92
2018-09-20T06:31:58.553Z,19.01
2018-09-20T06:36:03.981Z,19.09
2018-09-20T06:40:07.541Z,19.14
2018-09-20T06:44:11.153Z,19.18
2018-09-20T06:48:14.837Z,19.23
2018-09-20T06:52:18.403Z,19.28
2018-09-20T06:56:22.544Z,19.33
2018-09-20T07:00:26.185Z,19.44
2018-09-20T07:04:29.886Z,19.56
2018-09-20T07:08:33.476Z,19.70
2018-09-20T07:12:37.094Z,19.83
2018-09-20T07:16:40.730Z,19.96
2018-09-20T07:20:44.583Z,20.10
2018-09-20T07:24:48.128Z,20.26
2018-09-20T07:28:51.650Z,20.43
2018-09-20T07:32:55.373Z,20.53
2018-09-20T07:36:59.004Z,20.63
2018-09-20T07:41:02.443Z,20.73
2018-09-20T07:45:06.088Z,20.84
2018-09-20T07:49:09.630Z,20.96
2018-09-20T07:53:13.320Z,21.12
2018-09-20T07:57:16.938Z,21.28
2018-09-20T08:01:20.440Z,21.45
2018-09-20T08:05:23.903Z,21.59
2018-09-20T08:09:27.518Z,21.71
2018-09-20T08:13:31.124Z,21.83
2018-09-20T08:17:34.790Z,21.90
2018-09-20T08:21:38.546Z,21.96
2018-09-20T08:25:42.162Z,22.08
2018-09-20T08:29:45.675Z,22.19
2018-09-20T08:33:49.415Z,22.31
2018-09-20T08:37:53.079Z,22.41
2018-09-20T08:41:56.514Z,22.54
2018-09-20T08:46:00.174Z,22.67
2018-09-20T08:50:03.975Z,22.80
2018-09-20T08:54:07.623Z,22.88
2018-09-20T08:58:11.202Z,23.00
2018-09-20T09:02:14.918Z,23.14
2018-09-20T09:06:18.635Z,23.23
2018-09-20T09:10:22.058Z,23.22
2018-09-20T09:14:25.691Z,23.24
2018-09-20T09:18:29.226Z,23.33
2018-09-20T09:22:32.930Z,23.42
2018-09-20T09:26:36.664Z,23.49
2018-09-20T09:30:40.285Z,23.60
2018-09-20T09:34:43.853Z,23.75
2018-09-20T09:38:47.490Z,23.90
2018-09-20T09:42:51.059Z,24.00
2018-09-20T09:46:54.679Z,24.04
2018-09-20T09:50:58.193Z,24.12
2018-09-20T09:55:01.931Z,24.20
2018-09-20T09:59:05.728Z,24.31
2018-09-20T10:03:09.593Z,24.50
2018-09-20T10:07:13.088Z,24.64
2018-09-20T10:11:16.925Z,24.79
2018-09-20T10:15:20.423Z,24.87
2018-09-20T10:19:24.067Z,24.94
2018-09-20T10:23:27.549Z,25.05
2018-09-20T10:27:31.136Z,25.12
2018-09-20T10:31:35.089Z,25.24
2018-09-20T10:35:38.742Z,25.39
2018-09-20T10:39:42.420Z,25.45
2018-09-20T10:43:46.570Z,25.58
2018-09-20T10:47:50.026Z,25.72
2018-09-20T10:51:54.018Z,25.84
2018-09-20T10:55:57.590Z,25.92
2018-09-20T11:00:01.178Z,26.03
2018-09-20T11:04:04.822Z,26.06
2018-09-20T11:08:08.273Z,26.08
2018-09-20T11:12:11.994Z,26.08
2018-09-20T11:16:16.710Z,26.10
2018-09-20T11:20:20.320Z,26.19
2018-09-20T11:24:24.039Z,26.28
2018-09-20T11:28:27.614Z,26.40
2018-09-20T11:32:31.262Z,26.51
2018-09-20T11:36:34.765Z,26.60
2018-09-20T11:40:38.325Z,26.71
2018-09-20T11:44:41.851Z,26.84
2018-09-20T11:48:45.393Z,26.93
2018-09-20T11:52:48.950Z,27.04
2018-09-20T11:56:52.564Z,27.14
2018-09-20T12:00:56.114Z,27.20
2018-09-20T12:04:59.803Z,27.27
2018-09-20T12:09:04.162Z,27.39
2018-09-20T12:13:07.723Z,27.45
2018-09-20T12:17:12.493Z,27.49
2018-09-20T12:21:16.481Z,27.47
2018-09-20T12:25:20.020Z,27.50
2018-09-20T12:29:24.011Z,27.51
2018-09-20T12:33:27.809Z,27.54
2018-09-20T12:37:38.842Z,27.53
2018-09-20T12:41:42.903Z,27.52
2018-09-20T12:45:47.091Z,27.53
2018-09-20T12:49:50.537Z,27.47
2018-09-20T12:53:54.274Z,27.38
2018-09-20T12:57:57.741Z,27.26
2018-09-20T13:02:02.634Z,27.26
2018-09-20T13:06:06.185Z,27.31
2018-09-20T13:10:09.841Z,27.37
2018-09-20T13:14:13.254Z,27.41
2018-09-20T13:18:16.942Z,27.43
2018-09-20T13:22:20.674Z,27.50
2018-09-20T13:26:24.498Z,27.52
2018-09-20T13:30:27.998Z,27.51
2018-09-20T13:34:31.822Z,27.45
2018-09-20T13:38:35.518Z,27.34
2018-09-20T13:42:39.140Z,27.19
2018-09-20T13:46:42.742Z,27.18
2018-09-20T13:50:46.340Z,27.14
2018-09-20T13:54:49.843Z,27.14
2018-09-20T13:58:53.462Z,27.22
2018-09-20T14:02:57.075Z,27.26
2018-09-20T14:07:00.766Z,27.25
2018-09-20T14:11:04.258Z,27.30
2018-09-20T14:15:08.276Z,27.32
2018-09-20T14:19:11.767Z,27.37
2018-09-20T14:23:15.571Z,27.35
2018-09-20T14:27:19.118Z,27.29
2018-09-20T14:31:23.416Z,27.20
2018-09-20T14:35:26.919Z,27.14
2018-09-20T14:39:30.557Z,27.11
2018-09-20T14:43:34.247Z,27.09
2018-09-20T14:47:38.939Z,27.06
2018-09-20T14:51:42.511Z,27.08
2018-09-20T14:55:46.141Z,27.08
2018-09-20T14:59:49.650Z,27.07
2018-09-20T15:03:53.339Z,27.05
2018-09-20T15:07:56.890Z,27.05
2018-09-20T15:12:00.446Z,27.07
2018-09-20T15:16:04.091Z,27.03
2018-09-20T15:20:07.913Z,27.02
2018-09-20T15:24:11.492Z,27.00
2018-09-20T15:28:15.389Z,27.01
2018-09-20T15:32:19.095Z,26.97
2018-09-20T15:36:22.983Z,26.94
2018-09-20T15:40:26.577Z,26.92
2018-09-20T15:44:30.265Z,26.89
2018-09-20T15:48:34.114Z,26.85
2018-09-20T15:52:38.059Z,26.85
2018-09-20T15:56:41.602Z,26.84
2018-09-20T16:00:45.242Z,26.84
2018-09-20T16:04:48.902Z,26.79
2018-09-20T16:08:52.394Z,26.76
2018-09-20T16:12:55.878Z,26.73
2018-09-20T16:17:00.613Z,26.68
2018-09-20T16:21:04.110Z,26.65
2018-09-20T16:25:07.939Z,26.65
2018-09-20T16:30:27.005Z,26.62
2018-09-20T16:34:49.131Z,26.58
2018-09-20T16:38:58.251Z,26.50
2018-09-20T16:43:01.916Z,26.41
2018-09-20T16:47:06.009Z,26.36
2018-09-20T16:51:10.840Z,26.30
2018-09-20T16:55:14.567Z,26.24
2018-09-20T16:59:18.166Z,26.14
2018-09-20T17:03:21.915Z,26.05
2018-09-20T17:07:25.455Z,25.96
2018-09-20T17:11:29.068Z,25.89
2018-09-20T17:15:32.744Z,25.80
2018-09-20T17:19:36.241Z,25.71
2018-09-20T17:23:40.361Z,25.61
2018-09-20T17:27:43.798Z,25.53
2018-09-20T17:31:48.411Z,25.43
2018-09-20T17:35:52.560Z,25.34
2018-09-20T17:39:57.973Z,25.27
2018-09-20T17:44:03.771Z,25.19
2018-09-20T17:48:07.267Z,25.13
2018-09-20T17:52:11.529Z,25.04
2018-09-20T17:56:16.159Z,24.99
2018-09-20T18:00:22.395Z,24.93
2018-09-20T18:04:25.939Z,24.86
2018-09-20T18:08:29.509Z,24.79
2018-09-20T18:12:33.082Z,24.72
2018-09-20T18:16:36.569Z,24.66
2018-09-20T18:20:40.049Z,24.63
2018-09-20T18:24:43.557Z,24.57
2018-09-20T18:28:47.216Z,24.52
2018-09-20T18:32:51.057Z,24.47
2018-09-20T18:36:54.542Z,24.41
2018-09-20T18:40:58.119Z,24.36
2018-09-20T18:45:01.632Z,24.28
2018-09-20T18:49:05.217Z,24.22
2018-09-20T18:53:08.719Z,24.15
2018-09-20T18:57:12.160Z,24.06
2018-09-20T19:01:15.747Z,24.01
2018-09-20T19:05:19.247Z,23.95
2018-09-20T19:10:15.465Z,23.91
2018-09-20T19:14:19.097Z,23.82
2018-09-20T19:18:22.579Z,23.74
2018-09-20T19:22:26.214Z,23.68
2018-09-20T19:26:29.734Z,23.58
2018-09-20T19:30:33.326Z,23.48
2018-09-20T19:34:36.895Z,23.40
2018-09-20T19:38:40.646Z,23.34
2018-09-20T19:42:44.017Z,23.26
2018-09-20T19:46:48.683Z,23.21
2018-09-20T19:50:52.265Z,23.18
2018-09-20T19:54:55.705Z,23.14
2018-09-20T19:58:59.190Z,23.08
2018-09-20T20:03:02.934Z,23.06
2018-09-20T20:07:06.470Z,23.00
2018-09-20T20:11:10.022Z,22.94
2018-09-20T20:15:13.525Z,22.91
2018-09-20T20:19:17.050Z,22.90
2018-09-20T20:23:20.574Z,22.87
2018-09-20T20:27:23.989Z,22.83
2018-09-20T20:31:27.736Z,22.78
2018-09-20T20:35:31.210Z,22.72
2018-09-20T20:39:34.766Z,22.67
2018-09-20T20:43:38.386Z,22.62
2018-09-20T20:47:44.118Z,22.60
2018-09-20T20:51:48.594Z,22.56
2018-09-20T20:55:52.326Z,22.52
2018-09-20T20:59:55.765Z,22.46
2018-09-20T21:03:59.454Z,22.41
2018-09-20T21:08:02.989Z,22.34
2018-09-20T21:12:06.489Z,22.29
2018-09-20T21:16:10.056Z,22.26
2018-09-20T21:20:13.570Z,22.20
2018-09-20T21:24:17.075Z,22.12
2018-09-20T21:28:20.554Z,22.09
2018-09-20T21:32:24.210Z,22.05
2018-09-20T21:36:28.954Z,22.00
2018-09-20T21:40:32.438Z,21.97
2018-09-20T21:44:35.944Z,21.90
2018-09-20T21:48:39.425Z,21.81
2018-09-20T21:52:43.169Z,21.75
2018-09-20T21:56:46.592Z,21.72
2018-09-20T22:00:53.234Z,21.66
2018-09-20T22:04:56.677Z,21.61
2018-09-20T22:09:01.342Z,21.56
2018-09-20T22:13:05.254Z,21.49
2018-09-20T22:17:09.208Z,21.40
2018-09-20T22:21:12.726Z,21.34
2018-09-20T22:25:16.534Z,21.25
2018-09-20T22:29:20.035Z,21.24
2018-09-20T22:33:23.521Z,21.20
2018-09-20T22:37:27.015Z,21.11
2018-09-20T22:41:30.659Z,21.04
2018-09-20T22:45:34.286Z,21.01
2018-09-20T22:49:37.753Z,21.01
2018-09-20T22:53:41.330Z,20.99
2018-09-20T22:57:45.898Z,20.95
2018-09-20T23:01:49.497Z,20.91
2018-09-20T23:05:53.103Z,20.87
2018-09-20T23:09:56.571Z,20.83
2018-09-20T23:14:00.142Z,20.78
2018-09-20T23:18:03.706Z,20.76
2018-09-20T23:22:07.170Z,20.73
2018-09-20T23:26:10.710Z,20.64
2018-09-20T23:30:14.234Z,20.51
2018-09-20T23:34:17.685Z,20.42
2018-09-20T23:42:23.687Z,20.32
2018-09-20T23:46:27.256Z,20.27
2018-09-20T23:50:30.901Z,20.20
2018-09-20T23:54:34.422Z,20.11
2018-09-20T23:58:37.891Z,20.07
